Ekin-s — TCMW3 — position and weather

sailwx.info

Track history (hours):
 
Tides and Currents Weather Stations Pressure Air Temp Water Temp Dewpoint Dewpoint Depression Visibility Wind Speed Wind Dir Waves Ship Positions

Ekin-s

Last reported at 2016-Feb-12 04:20 UTC. Time now 2016-Feb-12 20:33 UTC.
Position N 37°06' W 001°14'.

Length 109 m; draft 5.2 m.

Type: Tanker. MMSI: 271042836.

Date/timePositionNaut miles runAvg speedWind from/ knotsBaromVisibWave heightAir tempDewpointWater temp
2016-Feb-12 04:20N 37°06' W 001°14'1111.5
2016-Feb-12 03:25N 37°13' W 001°04'1212.0
2016-Feb-12 02:23N 37°21' W 000°52'1011.7
2016-Feb-12 01:33N 37°28' W 000°43'1211.7
2016-Feb-12 00:33N 37°36' W 000°32'1212.4
2016-Feb-11 23:33N 37°44' W 000°21'14411.8
2016-Feb-11 11:25N 39°51' E 001°06'1112.4
2016-Feb-11 10:33N 40°01' E 001°12'1212.0
2016-Feb-11 09:33N 40°13' E 001°13'1212.1
2016-Feb-11 08:33N 40°24' E 001°10'1312.4
2016-Feb-11 07:33N 40°37' E 001°08'36 1.2
2016-Feb-10 01:18N 40°45' E 001°55'7 8.7
2016-Feb-10 00:33N 40°42' E 002°02'9 8.8
2016-Feb-09 23:33N 40°38' E 002°13'9 8.6
2016-Feb-09 22:33N 40°34' E 002°23'8 8.2
2016-Feb-09 21:33N 40°31' E 002°32'7 7.5
2016-Feb-09 20:33N 40°27' E 002°41'7 7.5
2016-Feb-09 19:33N 40°22' E 002°49'7 7.3
2016-Feb-09 18:33N 40°18' E 002°56'8 7.6
2016-Feb-09 17:33N 40°13' E 003°04'8 8.1
2016-Feb-09 16:33N 40°07' E 003°12'18 9.1
2016-Feb-09 14:33N 39°57' E 003°31'1311.4
2016-Feb-09 13:25N 39°50' E 003°45'49710.1
2016-Feb-07 12:20N 36°46' E 013°34'911.9
2016-Feb-07 11:33N 36°45' E 013°46'1212.2
2016-Feb-07 10:33N 36°42' E 014°00'1212.2
2016-Feb-07 09:33N 36°40' E 014°15'1212.3
2016-Feb-07 08:33N 36°38' E 014°30'  
Track history (hours):
 
Tides and Currents Weather Stations Pressure Air Temp Water Temp Dewpoint Dewpoint Depression Visibility Wind Speed Wind Dir Waves Ship Positions

Ekin-s

Last reported at 2016-Feb-12 04:20 UTC. Time now 2016-Feb-12 20:33 UTC.
Position N 37°06' W 001°14'.

Length 109 m; draft 5.2 m.

Type: Tanker. MMSI: 271042836.

Date/timePositionNaut miles runAvg speedWind from/ knotsBaromVisibWave heightAir tempDewpointWater temp
2016-Feb-12 04:20N 37°06' W 001°14'1111.5
2016-Feb-12 03:25N 37°13' W 001°04'1212.0
2016-Feb-12 02:23N 37°21' W 000°52'1011.7
2016-Feb-12 01:33N 37°28' W 000°43'1211.7
2016-Feb-12 00:33N 37°36' W 000°32'1212.4
2016-Feb-11 23:33N 37°44' W 000°21'14411.8
2016-Feb-11 11:25N 39°51' E 001°06'1112.4
2016-Feb-11 10:33N 40°01' E 001°12'1212.0
2016-Feb-11 09:33N 40°13' E 001°13'1212.1
2016-Feb-11 08:33N 40°24' E 001°10'1312.4
2016-Feb-11 07:33N 40°37' E 001°08'36 1.2
2016-Feb-10 01:18N 40°45' E 001°55'7 8.7
2016-Feb-10 00:33N 40°42' E 002°02'9 8.8
2016-Feb-09 23:33N 40°38' E 002°13'9 8.6
2016-Feb-09 22:33N 40°34' E 002°23'8 8.2
2016-Feb-09 21:33N 40°31' E 002°32'7 7.5
2016-Feb-09 20:33N 40°27' E 002°41'7 7.5
2016-Feb-09 19:33N 40°22' E 002°49'7 7.3
2016-Feb-09 18:33N 40°18' E 002°56'8 7.6
2016-Feb-09 17:33N 40°13' E 003°04'8 8.1
2016-Feb-09 16:33N 40°07' E 003°12'18 9.1
2016-Feb-09 14:33N 39°57' E 003°31'1311.4
2016-Feb-09 13:25N 39°50' E 003°45'49710.1
2016-Feb-07 12:20N 36°46' E 013°34'911.9
2016-Feb-07 11:33N 36°45' E 013°46'1212.2
2016-Feb-07 10:33N 36°42' E 014°00'1212.2
2016-Feb-07 09:33N 36°40' E 014°15'1212.3
2016-Feb-07 08:33N 36°38' E 014°30'  

Dump ship's entire track history